Terminal Aerodrome Forecast
Issued by NWS Binghamton, NY

Home | Current Version | Previous Version | Text Only | Print | Product List | Glossary On
Versions: 1 2 3 4 5 6 7 8 9 10 11 12 13 14 15 16 17 18 19
839
FTUS41 KBGM 272335
TAFBGM
TAF
KBGM 272335Z 2800/2824 15004KT P6SM SCT120 BKN250
     FM281300 20008KT P6SM SCT040 BKN100
     FM281800 22010KT P6SM BKN040 PROB30 2820/2824 4SM TSRA BR
      OVC022CB=

USA.gov is the U.S. government's official web portal to all federal, state and local government web resources and services.